createdAt,value
2019-03-16T00:00:20.532Z,10.72
2019-03-16T00:02:49.218Z,11.90
2019-03-16T00:05:18.109Z,8.08
2019-03-16T00:07:46.898Z,8.38
2019-03-16T00:10:15.786Z,9.98
2019-03-16T00:12:44.680Z,12.95
2019-03-16T00:15:13.568Z,14.07
2019-03-16T00:17:42.265Z,15.08
2019-03-16T00:20:12.238Z,14.58
2019-03-16T00:22:41.166Z,15.43
2019-03-16T00:25:10.551Z,11.08
2019-03-16T00:27:39.556Z,14.10
2019-03-16T00:30:15.415Z,12.58
2019-03-16T00:32:44.199Z,8.08
2019-03-16T00:35:12.988Z,15.13
2019-03-16T00:37:41.775Z,16.23
2019-03-16T00:40:13.021Z,15.20
2019-03-16T00:42:41.810Z,10.03
2019-03-16T00:45:12.014Z,8.70
2019-03-16T00:47:40.924Z,17.27
2019-03-16T00:50:11.293Z,14.05
2019-03-16T00:52:40.327Z,12.07
2019-03-16T00:55:10.767Z,13.13
2019-03-16T00:57:39.759Z,13.70
2019-03-16T01:00:11.726Z,25.00
2019-03-16T01:02:40.614Z,15.48
2019-03-16T01:05:09.848Z,16.77
2019-03-16T01:07:38.701Z,15.25
2019-03-16T01:10:09.041Z,12.93
2019-03-16T01:12:37.915Z,16.05
2019-03-16T01:15:09.454Z,15.00
2019-03-16T01:17:38.362Z,11.13
2019-03-16T01:20:09.605Z,12.18
2019-03-16T01:22:38.495Z,11.35
2019-03-16T01:25:08.091Z,12.37
2019-03-16T01:27:36.992Z,6.90
2019-03-16T01:30:09.062Z,11.15
2019-03-16T01:32:40.805Z,11.78
2019-03-16T01:35:08.298Z,10.38
2019-03-16T01:37:37.108Z,12.68
2019-03-16T01:40:08.717Z,9.75
2019-03-16T01:42:37.709Z,15.03
2019-03-16T01:45:08.843Z,11.05
2019-03-16T01:47:37.645Z,13.90
2019-03-16T01:50:09.615Z,10.23
2019-03-16T01:52:38.495Z,8.40
2019-03-16T01:55:09.001Z,7.50
2019-03-16T01:57:37.811Z,3.80
2019-03-16T02:00:11.516Z,7.35
2019-03-16T02:02:53.810Z,4.70
2019-03-16T02:05:10.937Z,6.95
2019-03-16T02:07:39.823Z,7.28
2019-03-16T02:10:09.829Z,6.40
2019-03-16T02:12:38.628Z,7.75
2019-03-16T02:15:09.128Z,7.47
2019-03-16T02:17:37.946Z,5.20
2019-03-16T02:20:08.455Z,3.50
2019-03-16T02:22:37.364Z,8.23
2019-03-16T02:25:07.151Z,14.65
2019-03-16T02:27:36.172Z,7.15
2019-03-16T02:30:07.723Z,10.55
2019-03-16T02:32:36.616Z,10.83
2019-03-16T02:35:07.608Z,8.83
2019-03-16T02:37:36.650Z,5.95
2019-03-16T02:40:10.033Z,10.55
2019-03-16T02:42:38.847Z,7.12
2019-03-16T02:45:09.434Z,8.55
2019-03-16T02:47:38.279Z,10.55
2019-03-16T02:50:11.354Z,8.43
2019-03-16T02:52:40.137Z,8.98
2019-03-16T02:55:10.051Z,10.28
2019-03-16T02:57:38.938Z,4.83
2019-03-16T03:00:13.040Z,6.55
2019-03-16T03:02:42.040Z,8.48
2019-03-16T03:05:11.251Z,5.75
2019-03-16T03:07:40.129Z,7.05
2019-03-16T03:10:14.244Z,3.27
2019-03-16T03:12:43.235Z,3.45
2019-03-16T03:15:13.762Z,5.12
2019-03-16T03:17:42.552Z,4.75
2019-03-16T03:20:11.751Z,3.98
2019-03-16T03:22:40.643Z,2.85
2019-03-16T03:25:09.635Z,3.30
2019-03-16T03:27:38.627Z,4.00
2019-03-16T03:30:10.712Z,7.83
2019-03-16T03:32:39.730Z,3.27
2019-03-16T03:35:10.061Z,2.87
2019-03-16T03:37:38.997Z,2.98
2019-03-16T03:40:10.225Z,4.67
2019-03-16T03:42:39.149Z,4.78
2019-03-16T03:45:14.663Z,4.97
2019-03-16T03:47:43.679Z,3.45
2019-03-16T03:50:13.754Z,6.37
2019-03-16T03:52:42.584Z,3.58
2019-03-16T03:55:13.448Z,2.92
2019-03-16T03:57:42.823Z,4.22
2019-03-16T04:00:16.731Z,2.95
2019-03-16T04:02:45.516Z,2.83
2019-03-16T04:05:14.404Z,2.08
2019-03-16T04:08:02.547Z,2.47
2019-03-16T04:10:31.340Z,3.83
2019-03-16T04:13:00.124Z,1.92
2019-03-16T04:15:28.933Z,2.30
2019-03-16T04:17:57.700Z,3.00
2019-03-16T04:20:26.495Z,3.83
2019-03-16T04:22:55.382Z,2.52
2019-03-16T04:25:24.065Z,4.62
2019-03-16T04:27:53.061Z,2.12
2019-03-16T04:30:21.950Z,4.33
2019-03-16T04:32:50.735Z,5.95
2019-03-16T04:35:19.628Z,4.33
2019-03-16T04:37:48.413Z,4.20
2019-03-16T04:40:17.366Z,2.83
2019-03-16T04:42:46.297Z,2.95
2019-03-16T04:45:15.191Z,5.75
2019-03-16T04:47:43.877Z,6.58
2019-03-16T04:50:13.174Z,3.05
2019-03-16T04:52:42.175Z,5.50
2019-03-16T04:55:11.383Z,7.00
2019-03-16T04:57:40.357Z,6.78
2019-03-16T05:00:11.501Z,3.85
2019-03-16T05:02:40.288Z,7.15
2019-03-16T05:05:09.284Z,2.00
2019-03-16T05:07:38.071Z,3.67
2019-03-16T05:10:09.649Z,4.95
2019-03-16T05:12:38.521Z,4.90
2019-03-16T05:15:08.727Z,4.83
2019-03-16T05:17:37.626Z,5.95
2019-03-16T05:20:09.486Z,3.77
2019-03-16T05:22:38.381Z,3.08
2019-03-16T05:25:10.034Z,5.87
2019-03-16T05:27:38.926Z,4.80
2019-03-16T05:30:12.555Z,10.55
2019-03-16T05:32:41.412Z,7.10
2019-03-16T05:35:10.308Z,6.50
2019-03-16T05:37:39.193Z,3.60
2019-03-16T05:40:09.814Z,3.65
2019-03-16T05:42:38.820Z,4.42
2019-03-16T05:45:09.030Z,1.85
2019-03-16T05:47:37.730Z,5.60
2019-03-16T05:50:11.899Z,4.35
2019-03-16T05:52:40.732Z,7.40
2019-03-16T05:55:09.808Z,2.02
2019-03-16T05:57:38.722Z,4.03
2019-03-16T06:00:10.877Z,5.12
2019-03-16T06:02:39.876Z,3.52
2019-03-16T06:05:10.816Z,6.85
2019-03-16T06:07:39.195Z,5.55
2019-03-16T06:10:12.303Z,5.47
2019-03-16T06:12:41.074Z,6.37
2019-03-16T06:15:11.037Z,4.40
2019-03-16T06:17:39.978Z,5.22
2019-03-16T06:20:13.693Z,3.30
2019-03-16T06:22:42.574Z,6.58
2019-03-16T06:25:11.459Z,9.33
2019-03-16T06:27:40.352Z,8.85
2019-03-16T06:30:13.769Z,8.93
2019-03-16T06:32:42.640Z,3.60
2019-03-16T06:35:24.047Z,6.97
2019-03-16T06:37:41.852Z,6.10
2019-03-16T06:40:11.344Z,6.62
2019-03-16T06:42:40.259Z,7.15
2019-03-16T06:45:11.226Z,4.85
2019-03-16T06:47:40.180Z,9.13
2019-03-16T06:50:11.726Z,4.90
2019-03-16T06:52:40.622Z,9.23
2019-03-16T06:55:09.511Z,5.78
2019-03-16T06:57:38.301Z,5.17
2019-03-16T07:00:14.633Z,5.17
2019-03-16T07:02:43.455Z,7.67
2019-03-16T07:05:13.311Z,5.50
2019-03-16T07:07:42.157Z,7.33
2019-03-16T07:10:12.427Z,3.25
2019-03-16T07:12:41.478Z,3.30
2019-03-16T07:15:12.312Z,4.33
2019-03-16T07:17:41.102Z,1.57
2019-03-16T07:20:11.810Z,2.40
2019-03-16T07:22:40.826Z,5.53
2019-03-16T07:25:09.822Z,4.85
2019-03-16T07:27:38.711Z,3.77
2019-03-16T07:30:10.664Z,3.47
2019-03-16T07:32:39.564Z,3.65
2019-03-16T07:35:10.176Z,2.00
2019-03-16T07:37:39.206Z,1.60
2019-03-16T07:40:12.890Z,3.67
2019-03-16T07:42:42.687Z,2.20
2019-03-16T07:45:12.693Z,3.37
2019-03-16T07:47:41.406Z,2.15
2019-03-16T07:50:12.335Z,2.15
2019-03-16T07:52:41.333Z,5.58
2019-03-16T07:55:11.150Z,6.40
2019-03-16T07:57:40.947Z,4.17
2019-03-16T08:00:13.307Z,7.70
2019-03-16T08:02:42.432Z,6.50
2019-03-16T08:05:17.949Z,3.10
2019-03-16T08:07:42.165Z,4.45
2019-03-16T08:10:11.662Z,3.62
2019-03-16T08:12:40.654Z,6.40
2019-03-16T08:15:30.537Z,8.15
2019-03-16T08:17:59.611Z,5.47
2019-03-16T08:20:31.300Z,3.98
2019-03-16T08:22:59.151Z,8.38
2019-03-16T08:25:27.941Z,3.92
2019-03-16T08:27:56.728Z,2.02
2019-03-16T08:30:25.625Z,3.67
2019-03-16T08:32:54.616Z,3.37
2019-03-16T08:35:23.400Z,3.30
2019-03-16T08:37:52.291Z,5.67
2019-03-16T08:40:21.909Z,5.67
2019-03-16T08:42:51.570Z,1.65
2019-03-16T08:45:20.908Z,1.45
2019-03-16T08:47:49.594Z,1.82
2019-03-16T08:50:18.487Z,5.40
2019-03-16T08:52:47.380Z,2.50
2019-03-16T08:55:16.380Z,5.40
2019-03-16T08:57:45.158Z,2.52
2019-03-16T09:00:15.212Z,3.42
2019-03-16T09:02:44.175Z,1.72
2019-03-16T09:05:13.048Z,4.20
2019-03-16T09:07:41.949Z,3.90
2019-03-16T09:10:11.245Z,3.00
2019-03-16T09:12:40.138Z,3.85
2019-03-16T09:15:11.896Z,0.98
2019-03-16T09:17:40.891Z,1.20
2019-03-16T09:20:10.179Z,2.70
2019-03-16T09:22:39.082Z,3.50
2019-03-16T09:25:09.800Z,2.37
2019-03-16T09:27:38.706Z,3.12
2019-03-16T09:30:18.243Z,4.10
2019-03-16T09:32:47.134Z,3.10
2019-03-16T09:35:15.929Z,3.22
2019-03-16T09:37:44.815Z,7.03
2019-03-16T09:40:13.923Z,2.67
2019-03-16T09:42:42.699Z,6.40
2019-03-16T09:45:12.621Z,7.90
2019-03-16T09:47:41.506Z,1.57
2019-03-16T09:50:11.521Z,5.20
2019-03-16T09:52:40.632Z,5.60
2019-03-16T09:55:10.967Z,3.25
2019-03-16T09:57:39.874Z,2.77
2019-03-16T10:00:14.347Z,2.17
2019-03-16T10:02:43.137Z,3.98
2019-03-16T10:05:12.027Z,4.12
2019-03-16T10:07:40.814Z,2.85
2019-03-16T10:10:16.259Z,2.92
2019-03-16T10:12:45.250Z,5.35
2019-03-16T10:15:14.697Z,4.58
2019-03-16T10:17:43.556Z,2.98
2019-03-16T10:20:15.407Z,3.85
2019-03-16T10:22:44.301Z,5.97
2019-03-16T10:25:13.190Z,5.45
2019-03-16T10:27:42.084Z,6.95
2019-03-16T10:30:12.678Z,6.20
2019-03-16T10:32:41.597Z,5.33
2019-03-16T10:35:10.591Z,3.05
2019-03-16T10:37:39.482Z,4.55
2019-03-16T10:40:10.872Z,5.28
2019-03-16T10:42:39.919Z,5.12
2019-03-16T10:45:10.313Z,8.08
2019-03-16T10:47:39.140Z,6.35
2019-03-16T10:50:12.922Z,2.05
2019-03-16T10:52:42.041Z,2.40
2019-03-16T10:55:11.239Z,3.85
2019-03-16T10:57:40.247Z,7.70
2019-03-16T11:00:12.117Z,3.40
2019-03-16T11:02:41.094Z,5.42
2019-03-16T11:05:10.306Z,3.58
2019-03-16T11:07:39.073Z,4.28
2019-03-16T11:10:11.031Z,2.98
2019-03-16T11:12:40.229Z,1.67
2019-03-16T11:15:10.657Z,2.00
2019-03-16T11:17:39.869Z,4.33
2019-03-16T11:20:10.517Z,2.37
2019-03-16T11:22:39.691Z,4.05
2019-03-16T11:25:09.072Z,3.20
2019-03-16T11:27:38.283Z,2.35
2019-03-16T11:30:16.292Z,1.50
2019-03-16T11:32:45.387Z,1.82
2019-03-16T11:35:19.572Z,2.62
2019-03-16T11:37:48.492Z,4.58
2019-03-16T11:40:20.758Z,2.10
2019-03-16T11:42:49.651Z,4.83
2019-03-16T11:45:18.849Z,3.30
2019-03-16T11:47:49.122Z,3.02
2019-03-16T11:50:18.164Z,3.62
2019-03-16T11:52:47.156Z,5.28
2019-03-16T11:55:15.955Z,1.80
2019-03-16T11:57:44.735Z,4.05
2019-03-16T12:00:14.536Z,2.98
2019-03-16T12:02:43.435Z,3.05
2019-03-16T12:05:12.886Z,2.33
2019-03-16T12:07:41.939Z,5.87
2019-03-16T12:10:12.092Z,3.25
2019-03-16T12:12:40.956Z,3.47
2019-03-16T12:15:14.171Z,2.83
2019-03-16T12:17:43.129Z,4.25
2019-03-16T12:20:13.662Z,4.55
2019-03-16T12:22:44.849Z,2.62
2019-03-16T12:25:15.775Z,4.05
2019-03-16T12:27:47.140Z,3.22
2019-03-16T12:30:16.692Z,4.60
2019-03-16T12:32:45.939Z,4.70
2019-03-16T12:35:15.191Z,5.58
2019-03-16T12:37:44.394Z,3.25
2019-03-16T12:40:14.526Z,3.05
2019-03-16T12:42:45.179Z,2.22
2019-03-16T12:45:15.604Z,5.03
2019-03-16T12:47:44.871Z,2.95
2019-03-16T12:50:14.109Z,2.27
2019-03-16T12:52:43.293Z,2.92
2019-03-16T12:55:12.831Z,5.40
2019-03-16T12:57:42.009Z,1.45
2019-03-16T13:00:18.946Z,3.42
2019-03-16T13:02:47.734Z,2.08
2019-03-16T13:05:16.724Z,3.75
2019-03-16T13:07:45.718Z,3.10
2019-03-16T13:10:18.588Z,5.20
2019-03-16T13:12:47.492Z,6.70
2019-03-16T13:15:16.388Z,2.33
2019-03-16T13:17:45.169Z,9.10
2019-03-16T13:20:15.035Z,4.40
2019-03-16T13:22:44.004Z,2.90
2019-03-16T13:25:13.180Z,5.78
2019-03-16T13:27:42.268Z,4.85
2019-03-16T13:30:15.989Z,5.50
2019-03-16T13:32:44.967Z,5.70
2019-03-16T13:35:14.058Z,2.70
2019-03-16T13:37:42.949Z,3.92
2019-03-16T13:40:16.858Z,6.20
2019-03-16T13:42:45.754Z,1.60
2019-03-16T13:45:14.927Z,2.72
2019-03-16T13:47:43.734Z,5.45
2019-03-16T13:50:17.116Z,3.25
2019-03-16T13:52:46.232Z,3.62
2019-03-16T13:55:15.218Z,4.12
2019-03-16T13:57:44.006Z,5.20
2019-03-16T14:00:20.534Z,4.28
2019-03-16T14:02:49.569Z,3.25
2019-03-16T14:05:18.467Z,9.28
2019-03-16T14:07:47.240Z,4.50
2019-03-16T14:10:27.815Z,4.78
2019-03-16T14:12:56.703Z,2.55
2019-03-16T14:15:25.697Z,4.75
2019-03-16T14:17:57.592Z,3.20
2019-03-16T14:20:25.426Z,3.75
2019-03-16T14:23:15.620Z,4.05
2019-03-16T14:25:45.427Z,6.08
2019-03-16T14:28:14.626Z,3.67
2019-03-16T14:30:45.168Z,2.72
2019-03-16T14:33:14.887Z,4.80
2019-03-16T14:35:43.855Z,8.10
2019-03-16T14:38:12.593Z,4.92
2019-03-16T14:40:41.536Z,2.55
2019-03-16T14:45:44.538Z,4.20
2019-03-16T14:48:13.432Z,5.47
2019-03-16T14:50:42.219Z,2.85
2019-03-16T14:53:11.008Z,6.65
2019-03-16T14:55:39.894Z,3.62
2019-03-16T14:58:08.785Z,4.37
2019-03-16T15:00:39.011Z,5.62
2019-03-16T15:03:08.058Z,3.62
2019-03-16T15:05:36.993Z,3.67
2019-03-16T15:08:05.884Z,4.92
2019-03-16T15:10:34.878Z,12.00
2019-03-16T15:13:03.665Z,7.20
2019-03-16T15:15:32.663Z,5.95
2019-03-16T15:18:01.537Z,3.12
2019-03-16T15:20:30.442Z,6.15
2019-03-16T15:22:59.227Z,2.92
2019-03-16T15:25:28.016Z,5.30
2019-03-16T15:27:56.803Z,3.08
2019-03-16T15:30:25.589Z,8.45
2019-03-16T15:32:54.480Z,4.37
2019-03-16T15:35:23.373Z,4.20
2019-03-16T15:37:52.268Z,5.90
2019-03-16T15:40:21.071Z,5.60
2019-03-16T15:42:49.837Z,6.10
2019-03-16T15:45:25.469Z,4.60
2019-03-16T15:47:54.381Z,6.92
2019-03-16T15:50:23.376Z,4.37
2019-03-16T15:52:52.160Z,5.20
2019-03-16T15:55:21.049Z,11.30
2019-03-16T15:57:50.043Z,4.95
2019-03-16T16:00:19.549Z,4.83
2019-03-16T16:02:48.437Z,5.87
2019-03-16T16:05:17.331Z,7.15
2019-03-16T16:07:46.324Z,4.75
2019-03-16T16:10:16.678Z,4.95
2019-03-16T16:12:45.444Z,7.90
2019-03-16T16:15:14.695Z,4.85
2019-03-16T16:17:43.521Z,3.83
2019-03-16T16:20:19.374Z,8.23
2019-03-16T16:22:48.167Z,7.00
2019-03-16T16:25:17.052Z,9.55
2019-03-16T16:27:46.000Z,7.15
2019-03-16T16:30:19.136Z,9.85
2019-03-16T16:32:48.138Z,8.23
2019-03-16T16:35:17.531Z,10.53
2019-03-16T16:37:46.625Z,8.38
2019-03-16T16:40:19.231Z,8.48
2019-03-16T16:42:48.270Z,9.15
2019-03-16T16:45:17.975Z,6.45
2019-03-16T16:47:46.901Z,7.83
2019-03-16T16:50:17.938Z,6.90
2019-03-16T16:52:47.033Z,7.10
2019-03-16T16:55:15.925Z,8.98
2019-03-16T16:57:44.818Z,6.90
2019-03-16T17:00:24.155Z,10.40
2019-03-16T17:02:52.940Z,9.53
2019-03-16T17:05:21.936Z,7.42
2019-03-16T17:07:50.823Z,8.60
2019-03-16T17:10:19.813Z,6.35
2019-03-16T17:12:48.711Z,8.18
2019-03-16T17:15:22.239Z,9.43
2019-03-16T17:17:51.202Z,6.70
2019-03-16T17:20:20.090Z,9.35
2019-03-16T17:22:48.877Z,8.23
2019-03-16T17:25:17.872Z,6.72
2019-03-16T17:27:46.761Z,11.25
2019-03-16T17:30:24.148Z,6.95
2019-03-16T17:32:53.052Z,7.85
2019-03-16T17:35:21.827Z,6.28
2019-03-16T17:37:50.617Z,7.95
2019-03-16T17:40:19.701Z,7.30
2019-03-16T17:42:48.600Z,7.97
2019-03-16T17:45:17.484Z,10.00
2019-03-16T17:47:46.386Z,7.87
2019-03-16T17:50:16.176Z,7.70
2019-03-16T17:52:45.086Z,7.40
2019-03-16T17:55:15.361Z,8.25
2019-03-16T17:57:45.468Z,8.95
2019-03-16T18:00:18.368Z,6.10
2019-03-16T18:02:51.727Z,7.03
2019-03-16T18:05:17.759Z,9.13
2019-03-16T18:07:46.710Z,8.28
2019-03-16T18:10:16.225Z,8.78
2019-03-16T18:12:45.018Z,5.58
2019-03-16T18:15:21.722Z,5.08
2019-03-16T18:17:51.090Z,7.62
2019-03-16T18:20:20.186Z,7.65
2019-03-16T18:22:50.355Z,10.80
2019-03-16T18:25:19.401Z,7.28
2019-03-16T18:27:48.293Z,7.90
2019-03-16T18:30:21.388Z,7.65
2019-03-16T18:32:50.271Z,5.45
2019-03-16T18:35:19.365Z,8.83
2019-03-16T18:37:48.258Z,12.95
2019-03-16T18:40:21.153Z,11.18
2019-03-16T18:42:50.047Z,7.42
2019-03-16T18:45:30.587Z,6.87
2019-03-16T18:47:59.384Z,9.50
2019-03-16T18:50:28.377Z,10.32
2019-03-16T18:52:58.375Z,9.48
2019-03-16T18:55:27.389Z,9.33
2019-03-16T18:57:56.281Z,15.45
2019-03-16T19:00:25.274Z,10.35
2019-03-16T19:02:54.371Z,6.75
2019-03-16T19:05:23.158Z,11.63
2019-03-16T19:07:51.947Z,10.03
2019-03-16T19:10:21.040Z,11.20
2019-03-16T19:12:49.984Z,11.57
2019-03-16T19:15:20.634Z,12.00
2019-03-16T19:17:58.778Z,9.25
2019-03-16T19:20:20.296Z,10.35
2019-03-16T19:22:49.661Z,12.78
2019-03-16T19:25:23.542Z,16.67
2019-03-16T19:27:52.704Z,7.62
2019-03-16T19:30:21.582Z,8.10
2019-03-16T19:32:50.475Z,6.83
2019-03-16T19:35:19.347Z,12.65
2019-03-16T19:37:48.480Z,7.83
2019-03-16T19:40:18.816Z,10.70
2019-03-16T19:42:48.088Z,9.85
2019-03-16T19:45:17.280Z,11.65
2019-03-16T19:47:46.385Z,11.18
2019-03-16T19:50:16.076Z,10.40
2019-03-16T19:52:45.288Z,14.38
2019-03-16T19:55:15.003Z,13.60
2019-03-16T19:57:44.184Z,12.33
2019-03-16T20:00:17.790Z,10.95
2019-03-16T20:02:50.982Z,10.78
2019-03-16T20:05:17.319Z,7.15
2019-03-16T20:07:46.336Z,8.80
2019-03-16T20:10:19.879Z,7.70
2019-03-16T20:12:49.114Z,9.30
2019-03-16T20:15:18.100Z,8.38
2019-03-16T20:17:46.991Z,6.42
2019-03-16T20:20:18.750Z,9.73
2019-03-16T20:22:47.638Z,10.18
2019-03-16T20:25:16.432Z,8.55
2019-03-16T20:27:45.319Z,8.90
2019-03-16T20:30:16.084Z,7.12
2019-03-16T20:32:50.269Z,8.35
2019-03-16T20:35:15.677Z,9.00
2019-03-16T20:37:44.671Z,10.88
2019-03-16T20:40:14.374Z,10.23
2019-03-16T20:42:43.373Z,10.80
2019-03-16T20:45:12.908Z,9.10
2019-03-16T20:47:41.966Z,9.95
2019-03-16T20:50:13.931Z,10.90
2019-03-16T20:52:43.241Z,11.18
2019-03-16T20:55:12.132Z,9.60
2019-03-16T20:57:41.115Z,8.45
2019-03-16T21:00:18.030Z,8.98
2019-03-16T21:02:47.166Z,8.23
2019-03-16T21:05:16.325Z,8.98
2019-03-16T21:07:45.282Z,10.25
2019-03-16T21:10:23.112Z,8.70
2019-03-16T21:13:01.017Z,7.97
2019-03-16T21:15:40.407Z,6.97
2019-03-16T21:18:20.381Z,7.17
2019-03-16T21:20:58.502Z,7.45
2019-03-16T21:23:38.045Z,6.83
2019-03-16T21:26:17.078Z,6.95
2019-03-16T21:28:56.691Z,11.00
2019-03-16T21:31:29.228Z,5.47
2019-03-16T21:34:00.650Z,6.95
2019-03-16T21:36:52.811Z,7.58
2019-03-16T21:39:26.106Z,6.95
2019-03-16T21:41:55.345Z,5.97
2019-03-16T21:44:29.194Z,8.03
2019-03-16T21:47:19.344Z,4.90
2019-03-16T21:49:52.965Z,6.67
2019-03-16T21:52:26.052Z,4.92
2019-03-16T21:54:58.322Z,7.67
2019-03-16T22:02:36.524Z,7.60
2019-03-16T22:05:14.020Z,8.75
2019-03-16T22:07:48.002Z,6.08
2019-03-16T22:10:22.021Z,9.08
2019-03-16T22:12:56.302Z,5.05
2019-03-16T22:15:29.979Z,9.45
2019-03-16T22:18:04.134Z,8.25
2019-03-16T22:20:36.991Z,7.83
2019-03-16T22:23:10.204Z,7.25
2019-03-16T22:25:43.662Z,8.55
2019-03-16T22:28:14.370Z,8.48
2019-03-16T22:30:50.048Z,6.12
2019-03-16T22:33:20.965Z,7.20
2019-03-16T22:35:53.150Z,7.33
2019-03-16T22:38:46.429Z,5.28
2019-03-16T22:41:21.904Z,6.83
2019-03-16T22:43:53.464Z,4.92
2019-03-16T22:46:24.339Z,6.30
2019-03-16T22:48:54.157Z,6.65
2019-03-16T22:51:23.047Z,4.95
2019-03-16T22:53:51.739Z,3.75
2019-03-16T22:56:20.623Z,8.30
2019-03-16T22:58:49.415Z,6.25
2019-03-16T23:01:18.814Z,7.40
2019-03-16T23:03:47.814Z,6.10
2019-03-16T23:06:16.696Z,7.20
2019-03-16T23:12:43.002Z,4.42
2019-03-16T23:18:59.853Z,6.20
2019-03-16T23:21:54.678Z,4.47
2019-03-16T23:24:55.516Z,4.37
2019-03-16T23:27:35.948Z,5.47
2019-03-16T23:37:09.247Z,5.42
2019-03-16T23:39:46.001Z,6.05
2019-03-16T23:42:14.931Z,5.92
2019-03-16T23:50:47.827Z,5.33
2019-03-16T23:53:16.711Z,4.42
2019-03-16T23:55:45.600Z,7.12
2019-03-16T23:58:14.590Z,3.65
